createdAt,value
2023-02-27T00:03:01.312Z,5.40
2023-02-27T00:06:28.759Z,4.57
2023-02-27T00:09:54.710Z,4.87
2023-02-27T00:13:19.278Z,5.00
2023-02-27T00:16:43.171Z,4.37
2023-02-27T00:20:09.635Z,4.03
2023-02-27T00:23:34.156Z,4.63
2023-02-27T00:26:59.510Z,3.90
2023-02-27T00:30:29.277Z,4.63
2023-02-27T00:33:53.825Z,4.47
2023-02-27T00:37:18.141Z,4.03
2023-02-27T00:40:41.987Z,4.67
2023-02-27T00:44:10.445Z,4.00
2023-02-27T00:47:34.550Z,4.10
2023-02-27T00:51:00.493Z,3.40
2023-02-27T00:54:24.208Z,3.80
2023-02-27T00:57:48.321Z,4.20
2023-02-27T01:01:14.447Z,4.00
2023-02-27T01:04:38.304Z,3.97
2023-02-27T01:08:04.347Z,5.40
2023-02-27T01:11:28.691Z,4.73
2023-02-27T01:14:55.799Z,4.13
2023-02-27T01:18:21.847Z,4.37
2023-02-27T01:21:46.350Z,4.33
2023-02-27T01:25:10.870Z,4.83
2023-02-27T01:28:36.294Z,4.63
2023-02-27T01:32:01.821Z,3.90
2023-02-27T01:35:27.690Z,4.13
2023-02-27T01:38:52.192Z,4.03
2023-02-27T01:42:21.826Z,4.57
2023-02-27T01:45:48.694Z,4.27
2023-02-27T01:49:16.634Z,5.13
2023-02-27T01:52:43.323Z,4.23
2023-02-27T01:56:11.333Z,3.57
2023-02-27T01:59:36.737Z,4.47
2023-02-27T02:03:10.484Z,4.60
2023-02-27T02:06:37.958Z,4.23
2023-02-27T02:10:04.357Z,4.30
2023-02-27T02:13:28.732Z,3.90
2023-02-27T02:17:11.224Z,4.20
2023-02-27T02:21:23.911Z,4.07
2023-02-27T02:25:23.793Z,4.20
2023-02-27T02:29:21.596Z,4.13
2023-02-27T02:33:27.547Z,4.17
2023-02-27T02:37:39.963Z,4.23
2023-02-27T02:41:13.068Z,4.17
2023-02-27T02:44:43.828Z,4.07
2023-02-27T02:48:14.222Z,3.80
2023-02-27T02:51:44.053Z,4.63
2023-02-27T02:55:12.333Z,4.07
2023-02-27T02:58:47.264Z,4.30
2023-02-27T03:02:16.548Z,3.57
2023-02-27T03:05:46.147Z,3.90
2023-02-27T03:09:23.565Z,4.20
2023-02-27T03:12:58.221Z,4.50
2023-02-27T03:16:29.532Z,4.23
2023-02-27T03:19:59.924Z,4.00
2023-02-27T03:23:28.884Z,3.97
2023-02-27T03:26:59.372Z,4.07
2023-02-27T03:30:29.739Z,3.93
2023-02-27T03:34:04.954Z,3.93
2023-02-27T03:37:39.706Z,4.27
2023-02-27T03:41:11.962Z,4.23
2023-02-27T03:44:53.040Z,4.40
2023-02-27T03:48:17.560Z,4.07
2023-02-27T03:51:42.808Z,4.23
2023-02-27T03:55:13.308Z,4.53
2023-02-27T03:58:37.738Z,3.70
2023-02-27T04:02:03.052Z,4.30
2023-02-27T04:05:30.063Z,5.07
2023-02-27T04:09:06.670Z,4.10
2023-02-27T04:16:40.631Z,3.90
2023-02-27T04:20:18.508Z,4.73
2023-02-27T04:23:53.194Z,4.50
2023-02-27T04:27:25.405Z,3.90
2023-02-27T04:31:05.270Z,3.97
2023-02-27T04:34:35.487Z,4.23
2023-02-27T04:38:04.405Z,5.03
2023-02-27T04:41:34.363Z,5.37
2023-02-27T04:45:04.266Z,5.43
2023-02-27T04:48:33.140Z,3.80
2023-02-27T04:52:06.013Z,4.80
2023-02-27T04:55:34.088Z,4.10
2023-02-27T04:59:02.982Z,4.57
2023-02-27T05:02:32.708Z,4.33
2023-02-27T05:06:01.067Z,3.77
2023-02-27T05:09:32.829Z,3.80
2023-02-27T05:13:01.250Z,4.50
2023-02-27T05:16:33.085Z,4.77
2023-02-27T05:19:59.724Z,4.33
2023-02-27T05:23:31.334Z,3.80
2023-02-27T05:27:13.212Z,4.53
2023-02-27T05:30:42.218Z,5.00
2023-02-27T05:34:11.396Z,4.43
2023-02-27T05:37:42.172Z,4.70
2023-02-27T05:41:10.674Z,4.83
2023-02-27T05:44:41.136Z,5.87
2023-02-27T05:48:10.008Z,4.77
2023-02-27T05:51:36.684Z,5.43
2023-02-27T05:55:08.375Z,4.63
2023-02-27T05:58:36.361Z,5.00
2023-02-27T06:02:02.365Z,4.83
2023-02-27T06:05:29.084Z,5.60
2023-02-27T06:08:53.154Z,5.77
2023-02-27T06:12:17.087Z,5.70
2023-02-27T06:15:41.133Z,5.03
2023-02-27T06:19:09.604Z,6.87
2023-02-27T06:22:35.214Z,6.83
2023-02-27T06:25:59.251Z,6.40
2023-02-27T06:29:23.220Z,6.03
2023-02-27T06:32:47.181Z,6.40
2023-02-27T06:36:12.923Z,6.67
2023-02-27T06:39:37.012Z,7.50
2023-02-27T06:43:03.583Z,6.33
2023-02-27T06:46:32.553Z,5.73
2023-02-27T06:49:59.459Z,5.90
2023-02-27T06:53:24.730Z,5.87
2023-02-27T06:56:50.282Z,5.33
2023-02-27T07:00:17.986Z,6.80
2023-02-27T07:03:42.242Z,6.00
2023-02-27T07:07:33.104Z,5.87
2023-02-27T07:10:51.708Z,6.97
2023-02-27T07:14:16.665Z,6.20
2023-02-27T07:17:41.174Z,6.00
2023-02-27T07:21:05.440Z,6.10
2023-02-27T07:24:29.216Z,6.37
2023-02-27T07:27:54.574Z,5.50
2023-02-27T07:31:18.311Z,6.07
2023-02-27T07:34:42.244Z,5.77
2023-02-27T07:38:06.243Z,5.00
2023-02-27T07:41:31.302Z,5.20
2023-02-27T07:45:08.330Z,4.47
2023-02-27T07:48:32.636Z,5.90
2023-02-27T07:51:56.294Z,5.03
2023-02-27T07:55:20.527Z,4.33
2023-02-27T07:58:45.151Z,5.47
2023-02-27T08:02:11.338Z,5.47
2023-02-27T08:05:35.763Z,5.70
2023-02-27T08:09:00.181Z,5.30
2023-02-27T08:12:24.413Z,4.70
2023-02-27T08:15:48.019Z,5.30
2023-02-27T08:19:15.403Z,5.70
2023-02-27T08:22:39.148Z,4.30
2023-02-27T08:26:02.871Z,4.77
2023-02-27T08:29:26.848Z,5.50
2023-02-27T08:32:50.362Z,4.40
2023-02-27T08:36:15.600Z,4.37
2023-02-27T08:39:39.196Z,4.80
2023-02-27T08:43:02.702Z,4.57
2023-02-27T08:46:26.827Z,4.80
2023-02-27T08:49:50.617Z,4.43
2023-02-27T08:53:15.727Z,4.60
2023-02-27T08:56:39.247Z,4.00
2023-02-27T09:00:06.075Z,4.37
2023-02-27T09:03:29.719Z,5.73
2023-02-27T09:06:54.311Z,4.43
2023-02-27T09:10:19.999Z,4.03
2023-02-27T09:13:43.516Z,4.40
2023-02-27T09:17:07.399Z,4.80
2023-02-27T09:20:31.990Z,4.30
2023-02-27T09:24:02.475Z,4.27
2023-02-27T09:27:32.415Z,4.00
2023-02-27T09:30:56.002Z,4.07
2023-02-27T09:34:19.721Z,3.73
2023-02-27T09:37:43.853Z,3.33
2023-02-27T09:41:08.623Z,4.10
2023-02-27T09:44:46.582Z,4.30
2023-02-27T09:48:20.592Z,3.67
2023-02-27T09:51:44.284Z,3.50
2023-02-27T09:55:14.218Z,4.03
2023-02-27T09:58:52.384Z,4.80
2023-02-27T10:02:31.881Z,4.00
2023-02-27T10:06:11.163Z,3.90
2023-02-27T10:09:45.184Z,3.93
2023-02-27T10:13:39.761Z,4.00
2023-02-27T10:17:10.934Z,4.33
2023-02-27T10:20:45.530Z,6.77
2023-02-27T10:24:18.504Z,4.67
2023-02-27T10:27:44.561Z,3.40
2023-02-27T10:31:17.843Z,4.23
2023-02-27T10:34:44.536Z,3.80
2023-02-27T10:38:14.033Z,4.20
2023-02-27T10:41:39.944Z,3.30
2023-02-27T10:45:04.364Z,3.43
2023-02-27T10:48:28.141Z,3.23
2023-02-27T10:52:07.364Z,3.73
2023-02-27T10:55:34.614Z,3.43
2023-02-27T10:59:06.518Z,3.50
2023-02-27T11:02:36.814Z,3.10
2023-02-27T11:06:02.723Z,3.20
2023-02-27T11:09:28.101Z,3.57
2023-02-27T11:13:01.847Z,2.77
2023-02-27T11:16:25.459Z,3.70
2023-02-27T11:19:49.818Z,2.50
2023-02-27T11:23:16.966Z,3.13
2023-02-27T11:26:42.404Z,3.13
2023-02-27T11:30:22.405Z,2.73
2023-02-27T11:33:51.678Z,2.77
2023-02-27T11:37:24.931Z,2.47
2023-02-27T11:40:52.475Z,1.87
2023-02-27T11:44:23.997Z,1.90
2023-02-27T11:48:11.159Z,2.33
2023-02-27T11:51:49.742Z,2.60
2023-02-27T11:55:17.964Z,2.10
2023-02-27T11:58:49.384Z,2.10
2023-02-27T12:02:19.441Z,2.60
2023-02-27T12:05:47.988Z,2.77
2023-02-27T12:09:28.349Z,3.30
2023-02-27T12:12:54.964Z,5.17
2023-02-27T12:16:23.538Z,1.83
2023-02-27T12:20:07.615Z,2.77
2023-02-27T12:23:39.636Z,3.47
2023-02-27T12:27:15.936Z,2.50
2023-02-27T12:30:43.536Z,3.37
2023-02-27T12:34:17.313Z,2.20
2023-02-27T12:37:41.028Z,2.20
2023-02-27T12:41:27.575Z,2.20
2023-02-27T12:45:20.599Z,2.60
2023-02-27T12:49:04.269Z,2.77
2023-02-27T12:52:42.194Z,2.00
2023-02-27T12:56:13.886Z,2.37
2023-02-27T13:00:02.212Z,1.93
2023-02-27T13:03:30.218Z,2.30
2023-02-27T13:07:02.141Z,2.10
2023-02-27T13:10:32.331Z,1.97
2023-02-27T13:14:02.589Z,2.23
2023-02-27T13:17:32.872Z,1.97
2023-02-27T13:21:01.581Z,1.67
2023-02-27T13:24:27.407Z,2.37
2023-02-27T13:27:55.479Z,3.00
2023-02-27T13:31:35.153Z,2.33
2023-02-27T13:35:04.121Z,2.70
2023-02-27T13:38:34.246Z,2.10
2023-02-27T13:41:57.928Z,2.30
2023-02-27T13:45:48.456Z,3.33
2023-02-27T13:49:29.544Z,3.40
2023-02-27T13:52:54.053Z,2.60
2023-02-27T13:56:22.825Z,4.70
2023-02-27T13:59:54.476Z,2.53
2023-02-27T14:03:21.962Z,3.20
2023-02-27T14:06:48.850Z,2.33
2023-02-27T14:10:20.418Z,2.53
2023-02-27T14:14:02.728Z,2.50
2023-02-27T14:17:44.791Z,2.30
2023-02-27T14:21:09.463Z,2.60
2023-02-27T14:24:44.793Z,3.20
2023-02-27T14:28:26.545Z,2.57
2023-02-27T14:31:52.232Z,2.70
2023-02-27T14:35:17.171Z,2.40
2023-02-27T14:38:40.834Z,3.33
2023-02-27T14:42:30.466Z,2.20
2023-02-27T14:45:54.607Z,3.23
2023-02-27T14:49:21.740Z,1.97
2023-02-27T14:52:45.513Z,3.50
2023-02-27T14:56:19.624Z,2.60
2023-02-27T14:59:46.523Z,2.23
2023-02-27T15:03:21.216Z,2.70
2023-02-27T15:06:48.412Z,2.30
2023-02-27T15:10:25.058Z,2.50
2023-02-27T15:13:49.823Z,2.60
2023-02-27T15:17:20.036Z,2.60
2023-02-27T15:20:43.634Z,2.73
2023-02-27T15:24:20.967Z,2.50
2023-02-27T15:27:44.533Z,2.80
2023-02-27T15:31:12.803Z,3.03
2023-02-27T15:34:37.859Z,2.77
2023-02-27T15:38:02.455Z,3.30
2023-02-27T15:41:26.398Z,3.40
2023-02-27T15:44:50.785Z,2.30
2023-02-27T15:48:15.785Z,3.20
2023-02-27T15:51:40.824Z,4.60
2023-02-27T15:55:10.788Z,2.27
2023-02-27T15:58:37.468Z,3.97
2023-02-27T16:02:04.047Z,2.40
2023-02-27T16:05:31.012Z,2.60
2023-02-27T16:08:58.479Z,2.87
2023-02-27T16:12:30.673Z,2.70
2023-02-27T16:16:02.315Z,2.97
2023-02-27T16:19:27.307Z,2.03
2023-02-27T16:23:02.918Z,2.97
2023-02-27T16:26:31.715Z,2.57
2023-02-27T16:30:01.380Z,2.87
2023-02-27T16:33:26.440Z,2.80
2023-02-27T16:36:54.995Z,2.97
2023-02-27T16:40:22.308Z,2.60
2023-02-27T16:43:48.573Z,2.60
2023-02-27T16:47:12.560Z,2.43
2023-02-27T16:50:39.750Z,3.10
2023-02-27T16:54:03.386Z,3.43
2023-02-27T16:57:27.722Z,2.93
2023-02-27T17:00:52.833Z,2.67
2023-02-27T17:04:25.631Z,3.17
2023-02-27T17:07:49.760Z,3.40
2023-02-27T17:11:13.342Z,3.00
2023-02-27T17:14:37.622Z,3.00
2023-02-27T17:18:02.519Z,3.10
2023-02-27T17:21:27.170Z,3.30
2023-02-27T17:24:50.896Z,2.70
2023-02-27T17:28:14.433Z,2.60
2023-02-27T17:31:38.074Z,2.70
2023-02-27T17:35:03.262Z,3.03
2023-02-27T17:38:26.840Z,3.00
2023-02-27T17:41:52.836Z,3.33
2023-02-27T17:45:16.460Z,3.73
2023-02-27T17:48:40.071Z,3.40
2023-02-27T17:52:06.979Z,3.07
2023-02-27T17:55:30.744Z,3.63
2023-02-27T17:58:54.372Z,3.00
2023-02-27T18:02:18.019Z,3.50
2023-02-27T18:05:48.090Z,3.30
2023-02-27T18:09:13.042Z,3.20
2023-02-27T18:12:37.042Z,3.47
2023-02-27T18:16:01.610Z,3.77
2023-02-27T18:19:25.405Z,4.73
2023-02-27T18:22:48.937Z,4.03
2023-02-27T18:26:27.458Z,4.50
2023-02-27T18:29:53.462Z,3.97
2023-02-27T18:33:17.088Z,3.30
2023-02-27T18:36:40.945Z,4.27
2023-02-27T18:40:05.864Z,4.47
2023-02-27T18:43:31.922Z,3.13
2023-02-27T18:46:55.750Z,3.50
2023-02-27T18:50:19.592Z,3.63
2023-02-27T18:53:45.840Z,4.27
2023-02-27T18:57:09.752Z,3.67
2023-02-27T19:00:34.751Z,3.60
2023-02-27T19:04:03.394Z,4.20
2023-02-27T19:07:30.211Z,4.40
2023-02-27T19:10:53.932Z,3.87
2023-02-27T19:14:17.700Z,4.20
2023-02-27T19:17:42.920Z,4.73
2023-02-27T19:21:06.738Z,4.07
2023-02-27T19:24:30.400Z,3.90
2023-02-27T19:27:55.007Z,3.80
2023-02-27T19:31:19.079Z,4.47
2023-02-27T19:34:44.156Z,4.70
2023-02-27T19:38:07.833Z,4.40
2023-02-27T19:41:33.440Z,4.37
2023-02-27T19:44:57.122Z,4.57
2023-02-27T19:48:20.701Z,5.17
2023-02-27T19:51:45.550Z,5.00
2023-02-27T19:55:09.888Z,5.20
2023-02-27T19:58:35.903Z,5.10
2023-02-27T20:01:59.379Z,4.93
2023-02-27T20:05:23.103Z,4.80
2023-02-27T20:08:48.338Z,4.10
2023-02-27T20:12:12.019Z,5.13
2023-02-27T20:15:36.963Z,5.30
2023-02-27T20:19:00.711Z,5.13
2023-02-27T20:22:24.228Z,5.83
2023-02-27T20:25:49.629Z,5.37
2023-02-27T20:29:16.277Z,5.80
2023-02-27T20:32:39.942Z,5.10
2023-02-27T20:36:04.463Z,6.03
2023-02-27T20:39:29.548Z,5.20
2023-02-27T20:42:54.403Z,5.80
2023-02-27T20:46:21.583Z,5.80
2023-02-27T20:49:45.191Z,5.07
2023-02-27T20:53:08.788Z,5.70
2023-02-27T20:56:34.905Z,6.30
2023-02-27T20:59:59.980Z,5.53
2023-02-27T21:03:24.359Z,6.77
2023-02-27T21:06:48.160Z,6.20
2023-02-27T21:10:13.194Z,6.00
2023-02-27T21:13:37.502Z,5.70
2023-02-27T21:17:02.468Z,6.50
2023-02-27T21:20:26.322Z,6.47
2023-02-27T21:23:50.040Z,6.73
2023-02-27T21:27:13.540Z,6.23
2023-02-27T21:30:37.792Z,8.10
2023-02-27T21:34:06.764Z,6.93
2023-02-27T21:37:31.107Z,7.67
2023-02-27T21:40:55.088Z,6.70
2023-02-27T21:44:21.172Z,7.93
2023-02-27T21:47:45.108Z,7.63
2023-02-27T21:51:10.819Z,6.03
2023-02-27T21:54:35.191Z,6.73
2023-02-27T21:57:59.079Z,7.33
2023-02-27T22:01:32.439Z,5.97
2023-02-27T22:04:57.230Z,8.40
2023-02-27T22:08:22.439Z,6.97
2023-02-27T22:11:46.272Z,6.77
2023-02-27T22:15:10.833Z,7.30
2023-02-27T22:18:35.759Z,7.50
2023-02-27T22:22:02.442Z,7.63
2023-02-27T22:25:27.311Z,8.93
2023-02-27T22:28:51.445Z,7.20
2023-02-27T22:32:15.072Z,6.07
2023-02-27T22:35:39.260Z,6.60
2023-02-27T22:39:03.847Z,5.20
2023-02-27T22:42:29.607Z,6.43
2023-02-27T22:45:53.180Z,5.60
2023-02-27T22:49:18.858Z,4.93
2023-02-27T22:52:43.237Z,6.90
2023-02-27T22:56:09.321Z,6.00
2023-02-27T22:59:34.413Z,6.40
2023-02-27T23:02:58.442Z,6.50
2023-02-27T23:06:23.804Z,5.47
2023-02-27T23:09:47.425Z,6.00
2023-02-27T23:13:14.412Z,6.70
2023-02-27T23:16:39.886Z,6.70
2023-02-27T23:20:05.127Z,6.70
2023-02-27T23:23:29.552Z,7.43
2023-02-27T23:26:53.327Z,6.27
2023-02-27T23:30:17.614Z,5.60
2023-02-27T23:33:45.584Z,6.30
2023-02-27T23:37:09.279Z,6.37
2023-02-27T23:40:36.093Z,5.77
2023-02-27T23:44:01.374Z,5.80
2023-02-27T23:47:42.595Z,6.00
2023-02-27T23:51:10.379Z,6.10
2023-02-27T23:54:34.441Z,6.37
2023-02-27T23:58:00.233Z,7.00
